sensor_id;sensor_type;location;lat;lon;timestamp;P1;durP1;ratioP1;P2;durP2;ratioP2
55013;SDS011;40916;51.632;5.552;2022-10-16T00:01:14;2.9;;;8.3;;
55013;SDS011;40916;51.632;5.552;2022-10-16T00:06:14;3.5;;;6.9;;
55013;SDS011;40916;51.632;5.552;2022-10-16T00:11:14;2.9;;;7.6;;
55013;SDS011;40916;51.632;5.552;2022-10-16T00:16:14;3.6;;;7.7;;
55013;SDS011;40916;51.632;5.552;2022-10-16T00:21:14;3.4;;;8.9;;
55013;SDS011;40916;51.632;5.552;2022-10-16T00:26:15;2.9;;;6.3;;
55013;SDS011;40916;51.632;5.552;2022-10-16T00:31:13;2.9;;;6;;
55013;SDS011;40916;51.632;5.552;2022-10-16T00:36:14;3.6;;;6.1;;
55013;SDS011;40916;51.632;5.552;2022-10-16T00:41:14;3;;;11.2;;
55013;SDS011;40916;51.632;5.552;2022-10-16T00:46:15;3;;;6.9;;
55013;SDS011;40916;51.632;5.552;2022-10-16T00:51:13;3;;;8.1;;
55013;SDS011;40916;51.632;5.552;2022-10-16T00:56:13;2.9;;;6;;
55013;SDS011;40916;51.632;5.552;2022-10-16T01:01:13;2.7;;;5.2;;
55013;SDS011;40916;51.632;5.552;2022-10-16T01:06:18;2.8;;;10.4;;
55013;SDS011;40916;51.632;5.552;2022-10-16T01:11:15;3.1;;;8.5;;
55013;SDS011;40916;51.632;5.552;2022-10-16T01:16:15;3;;;6.2;;
55013;SDS011;40916;51.632;5.552;2022-10-16T01:21:15;2.6;;;7.1;;
55013;SDS011;40916;51.632;5.552;2022-10-16T01:26:15;3;;;11;;
55013;SDS011;40916;51.632;5.552;2022-10-16T01:31:15;3.8;;;9.9;;
55013;SDS011;40916;51.632;5.552;2022-10-16T01:36:14;3;;;7.3;;
55013;SDS011;40916;51.632;5.552;2022-10-16T01:41:15;2.9;;;6.4;;
55013;SDS011;40916;51.632;5.552;2022-10-16T01:46:13;2.8;;;7.2;;
55013;SDS011;40916;51.632;5.552;2022-10-16T01:51:14;2.6;;;4.2;;
55013;SDS011;40916;51.632;5.552;2022-10-16T01:56:13;2.8;;;10;;
55013;SDS011;40916;51.632;5.552;2022-10-16T02:01:13;2.7;;;6.7;;
55013;SDS011;40916;51.632;5.552;2022-10-16T02:06:13;2.5;;;7;;
55013;SDS011;40916;51.632;5.552;2022-10-16T02:11:13;2.5;;;7.7;;
55013;SDS011;40916;51.632;5.552;2022-10-16T02:16:13;1.9;;;4.1;;
55013;SDS011;40916;51.632;5.552;2022-10-16T02:21:14;2.5;;;5;;
55013;SDS011;40916;51.632;5.552;2022-10-16T02:26:15;2.4;;;6.5;;
55013;SDS011;40916;51.632;5.552;2022-10-16T02:31:15;2.1;;;4.2;;
55013;SDS011;40916;51.632;5.552;2022-10-16T02:36:13;2.2;;;4.9;;
55013;SDS011;40916;51.632;5.552;2022-10-16T02:41:13;2.1;;;4.9;;
55013;SDS011;40916;51.632;5.552;2022-10-16T02:46:13;2;;;4.9;;
55013;SDS011;40916;51.632;5.552;2022-10-16T02:51:13;2;;;4.5;;
55013;SDS011;40916;51.632;5.552;2022-10-16T02:56:13;2.5;;;5.8;;
55013;SDS011;40916;51.632;5.552;2022-10-16T03:01:13;2.9;;;6.1;;
55013;SDS011;40916;51.632;5.552;2022-10-16T03:06:13;2.2;;;4.2;;
55013;SDS011;40916;51.632;5.552;2022-10-16T03:11:13;2;;;6.3;;
55013;SDS011;40916;51.632;5.552;2022-10-16T03:16:13;2.2;;;6.2;;
55013;SDS011;40916;51.632;5.552;2022-10-16T03:21:13;2.7;;;6.5;;
55013;SDS011;40916;51.632;5.552;2022-10-16T03:26:13;2.2;;;7.1;;
55013;SDS011;40916;51.632;5.552;2022-10-16T03:31:13;2.6;;;5;;
55013;SDS011;40916;51.632;5.552;2022-10-16T03:36:13;2.1;;;4;;
55013;SDS011;40916;51.632;5.552;2022-10-16T03:41:13;2.2;;;4.4;;
55013;SDS011;40916;51.632;5.552;2022-10-16T03:46:13;2.1;;;5.5;;
55013;SDS011;40916;51.632;5.552;2022-10-16T03:51:13;2.2;;;4.5;;
55013;SDS011;40916;51.632;5.552;2022-10-16T03:56:13;2.8;;;6.4;;
55013;SDS011;40916;51.632;5.552;2022-10-16T04:01:13;2.4;;;7.6;;
55013;SDS011;40916;51.632;5.552;2022-10-16T04:06:13;2;;;3.9;;
55013;SDS011;40916;51.632;5.552;2022-10-16T04:11:13;2.2;;;5;;
55013;SDS011;40916;51.632;5.552;2022-10-16T04:16:13;1.9;;;3.4;;
55013;SDS011;40916;51.632;5.552;2022-10-16T04:21:13;2.1;;;5.6;;
55013;SDS011;40916;51.632;5.552;2022-10-16T04:26:13;2.2;;;4.4;;
55013;SDS011;40916;51.632;5.552;2022-10-16T04:31:13;2.4;;;5.9;;
55013;SDS011;40916;51.632;5.552;2022-10-16T04:36:13;2.4;;;5.7;;
55013;SDS011;40916;51.632;5.552;2022-10-16T04:41:13;2.6;;;5.2;;
55013;SDS011;40916;51.632;5.552;2022-10-16T04:46:13;2.1;;;5.2;;
55013;SDS011;40916;51.632;5.552;2022-10-16T04:51:13;2.2;;;3.9;;
55013;SDS011;40916;51.632;5.552;2022-10-16T04:56:13;2.3;;;6.2;;
55013;SDS011;40916;51.632;5.552;2022-10-16T05:01:13;2.1;;;4;;
55013;SDS011;40916;51.632;5.552;2022-10-16T05:06:13;2.2;;;4.6;;
55013;SDS011;40916;51.632;5.552;2022-10-16T05:11:13;2.1;;;5;;
55013;SDS011;40916;51.632;5.552;2022-10-16T05:16:13;2.4;;;4.3;;
55013;SDS011;40916;51.632;5.552;2022-10-16T05:21:13;2;;;10.8;;
55013;SDS011;40916;51.632;5.552;2022-10-16T05:26:13;2.5;;;5.5;;
55013;SDS011;40916;51.632;5.552;2022-10-16T05:31:13;2;;;5.8;;
55013;SDS011;40916;51.632;5.552;2022-10-16T05:36:13;2.1;;;4;;
55013;SDS011;40916;51.632;5.552;2022-10-16T05:41:13;2.1;;;5.6;;
55013;SDS011;40916;51.632;5.552;2022-10-16T05:46:13;2.3;;;5.1;;
55013;SDS011;40916;51.632;5.552;2022-10-16T05:51:13;2.2;;;6.2;;
55013;SDS011;40916;51.632;5.552;2022-10-16T05:56:13;2.4;;;7.9;;
55013;SDS011;40916;51.632;5.552;2022-10-16T06:01:14;2.3;;;4.6;;
55013;SDS011;40916;51.632;5.552;2022-10-16T06:06:14;2;;;6.6;;
55013;SDS011;40916;51.632;5.552;2022-10-16T06:11:14;2.5;;;5;;
55013;SDS011;40916;51.632;5.552;2022-10-16T06:16:13;3;;;8;;
55013;SDS011;40916;51.632;5.552;2022-10-16T06:21:14;2.6;;;5.4;;
55013;SDS011;40916;51.632;5.552;2022-10-16T06:26:13;2.7;;;8.1;;
55013;SDS011;40916;51.632;5.552;2022-10-16T06:31:13;4.5;;;10.8;;
55013;SDS011;40916;51.632;5.552;2022-10-16T06:36:13;3;;;6.8;;
55013;SDS011;40916;51.632;5.552;2022-10-16T06:41:13;3.8;;;9;;
55013;SDS011;40916;51.632;5.552;2022-10-16T06:46:14;3.9;;;8.7;;
55013;SDS011;40916;51.632;5.552;2022-10-16T06:51:13;3.1;;;6.5;;
55013;SDS011;40916;51.632;5.552;2022-10-16T06:56:14;3.1;;;7.8;;
55013;SDS011;40916;51.632;5.552;2022-10-16T07:01:13;3;;;7.5;;
55013;SDS011;40916;51.632;5.552;2022-10-16T07:06:14;3.3;;;7.8;;
55013;SDS011;40916;51.632;5.552;2022-10-16T07:11:14;3.4;;;9.5;;
55013;SDS011;40916;51.632;5.552;2022-10-16T07:16:13;2.8;;;4.5;;
55013;SDS011;40916;51.632;5.552;2022-10-16T07:21:14;3;;;5.3;;
55013;SDS011;40916;51.632;5.552;2022-10-16T07:26:13;2.5;;;7.7;;
55013;SDS011;40916;51.632;5.552;2022-10-16T07:31:13;2.3;;;5.5;;
55013;SDS011;40916;51.632;5.552;2022-10-16T07:36:13;2.6;;;4.7;;
55013;SDS011;40916;51.632;5.552;2022-10-16T07:41:13;2.4;;;7.3;;
55013;SDS011;40916;51.632;5.552;2022-10-16T07:46:13;1.7;;;4.2;;
55013;SDS011;40916;51.632;5.552;2022-10-16T07:51:13;2.4;;;7.4;;
55013;SDS011;40916;51.632;5.552;2022-10-16T07:56:13;2.1;;;6.1;;
55013;SDS011;40916;51.632;5.552;2022-10-16T08:01:14;1.8;;;5.7;;
55013;SDS011;40916;51.632;5.552;2022-10-16T08:06:13;1.9;;;4.6;;
55013;SDS011;40916;51.632;5.552;2022-10-16T08:11:13;2.2;;;7.7;;
55013;SDS011;40916;51.632;5.552;2022-10-16T08:16:13;2;;;5.5;;
55013;SDS011;40916;51.632;5.552;2022-10-16T08:21:13;2.2;;;7.6;;
55013;SDS011;40916;51.632;5.552;2022-10-16T08:26:13;1.6;;;5.7;;
55013;SDS011;40916;51.632;5.552;2022-10-16T08:31:13;2.1;;;6.4;;
55013;SDS011;40916;51.632;5.552;2022-10-16T08:36:13;2.1;;;7.7;;
55013;SDS011;40916;51.632;5.552;2022-10-16T08:41:18;1.9;;;8.2;;
55013;SDS011;40916;51.632;5.552;2022-10-16T08:46:15;2.2;;;5.5;;
55013;SDS011;40916;51.632;5.552;2022-10-16T08:51:15;1.7;;;7.4;;
55013;SDS011;40916;51.632;5.552;2022-10-16T08:56:13;1.9;;;4;;
55013;SDS011;40916;51.632;5.552;2022-10-16T09:01:14;1.7;;;5.2;;
55013;SDS011;40916;51.632;5.552;2022-10-16T09:06:16;1.9;;;4.1;;
55013;SDS011;40916;51.632;5.552;2022-10-16T09:11:14;1.6;;;5.8;;
55013;SDS011;40916;51.632;5.552;2022-10-16T09:16:14;1.7;;;5.2;;
55013;SDS011;40916;51.632;5.552;2022-10-16T09:21:14;1.9;;;6.1;;
55013;SDS011;40916;51.632;5.552;2022-10-16T09:26:14;1.5;;;6.1;;
55013;SDS011;40916;51.632;5.552;2022-10-16T09:31:13;2;;;6.4;;
55013;SDS011;40916;51.632;5.552;2022-10-16T09:36:13;1.7;;;6.3;;
55013;SDS011;40916;51.632;5.552;2022-10-16T09:41:14;1.5;;;6;;
55013;SDS011;40916;51.632;5.552;2022-10-16T09:46:20;1.6;;;5.6;;
55013;SDS011;40916;51.632;5.552;2022-10-16T09:51:16;1.9;;;12.2;;
55013;SDS011;40916;51.632;5.552;2022-10-16T09:56:20;1.8;;;4.4;;
55013;SDS011;40916;51.632;5.552;2022-10-16T10:01:13;1.7;;;5.9;;
55013;SDS011;40916;51.632;5.552;2022-10-16T10:06:16;1.5;;;7.3;;
55013;SDS011;40916;51.632;5.552;2022-10-16T10:11:13;2;;;8.5;;
55013;SDS011;40916;51.632;5.552;2022-10-16T10:16:14;2.2;;;11.1;;
55013;SDS011;40916;51.632;5.552;2022-10-16T10:21:13;2.2;;;13.3;;
55013;SDS011;40916;51.632;5.552;2022-10-16T10:26:13;2.1;;;10.6;;
55013;SDS011;40916;51.632;5.552;2022-10-16T10:31:14;2.5;;;9.6;;
55013;SDS011;40916;51.632;5.552;2022-10-16T10:36:22;2.5;;;15.3;;
55013;SDS011;40916;51.632;5.552;2022-10-16T10:41:17;2.5;;;14.4;;
55013;SDS011;40916;51.632;5.552;2022-10-16T10:46:14;2.4;;;11.1;;
55013;SDS011;40916;51.632;5.552;2022-10-16T10:51:13;2;;;12;;
55013;SDS011;40916;51.632;5.552;2022-10-16T10:56:15;1.8;;;10.3;;
55013;SDS011;40916;51.632;5.552;2022-10-16T11:01:13;2;;;12.2;;
55013;SDS011;40916;51.632;5.552;2022-10-16T11:06:14;2.3;;;13;;
55013;SDS011;40916;51.632;5.552;2022-10-16T11:11:14;2.3;;;12.1;;
55013;SDS011;40916;51.632;5.552;2022-10-16T11:16:13;2;;;10.9;;
55013;SDS011;40916;51.632;5.552;2022-10-16T11:21:13;2.6;;;15.4;;
55013;SDS011;40916;51.632;5.552;2022-10-16T11:26:14;2.3;;;10.1;;
55013;SDS011;40916;51.632;5.552;2022-10-16T11:31:13;2.2;;;8.5;;
55013;SDS011;40916;51.632;5.552;2022-10-16T11:36:14;3.3;;;13.8;;
55013;SDS011;40916;51.632;5.552;2022-10-16T11:41:15;2.3;;;9.5;;
55013;SDS011;40916;51.632;5.552;2022-10-16T11:46:13;1.4;;;13.5;;
55013;SDS011;40916;51.632;5.552;2022-10-16T11:51:14;2.1;;;10.3;;
55013;SDS011;40916;51.632;5.552;2022-10-16T11:56:13;2.2;;;10.3;;
55013;SDS011;40916;51.632;5.552;2022-10-16T12:01:15;2.4;;;8.4;;
55013;SDS011;40916;51.632;5.552;2022-10-16T12:06:14;1.8;;;10.8;;
55013;SDS011;40916;51.632;5.552;2022-10-16T12:11:22;2.7;;;13.2;;
55013;SDS011;40916;51.632;5.552;2022-10-16T12:16:21;2.1;;;9.3;;
55013;SDS011;40916;51.632;5.552;2022-10-16T12:21:13;1.9;;;10.7;;
55013;SDS011;40916;51.632;5.552;2022-10-16T12:26:12;2.3;;;13.9;;
55013;SDS011;40916;51.632;5.552;2022-10-16T12:31:12;2.5;;;9.6;;
55013;SDS011;40916;51.632;5.552;2022-10-16T12:36:13;2.3;;;13.1;;
55013;SDS011;40916;51.632;5.552;2022-10-16T12:41:12;2.5;;;12.4;;
55013;SDS011;40916;51.632;5.552;2022-10-16T12:46:43;1.9;;;10.1;;
55013;SDS011;40916;51.632;5.552;2022-10-16T12:51:21;1.8;;;10.7;;
55013;SDS011;40916;51.632;5.552;2022-10-16T12:56:16;3.2;;;17.2;;
55013;SDS011;40916;51.632;5.552;2022-10-16T13:01:16;2.5;;;10.2;;
55013;SDS011;40916;51.632;5.552;2022-10-16T13:06:15;1.9;;;10.3;;
55013;SDS011;40916;51.632;5.552;2022-10-16T13:11:16;2.1;;;6.8;;
55013;SDS011;40916;51.632;5.552;2022-10-16T13:16:14;2.1;;;8.1;;
55013;SDS011;40916;51.632;5.552;2022-10-16T13:21:17;1.9;;;9.4;;
55013;SDS011;40916;51.632;5.552;2022-10-16T13:31:14;2.2;;;12.5;;
55013;SDS011;40916;51.632;5.552;2022-10-16T13:36:17;1.7;;;8.5;;
55013;SDS011;40916;51.632;5.552;2022-10-16T13:41:13;1.8;;;7.4;;
55013;SDS011;40916;51.632;5.552;2022-10-16T13:46:14;2.6;;;10.5;;
55013;SDS011;40916;51.632;5.552;2022-10-16T13:51:13;1.7;;;9.4;;
55013;SDS011;40916;51.632;5.552;2022-10-16T13:56:13;2.1;;;10.5;;
55013;SDS011;40916;51.632;5.552;2022-10-16T14:01:15;1.9;;;5.7;;
55013;SDS011;40916;51.632;5.552;2022-10-16T14:06:13;1.7;;;7.3;;
55013;SDS011;40916;51.632;5.552;2022-10-16T14:11:12;1.8;;;7.2;;
55013;SDS011;40916;51.632;5.552;2022-10-16T14:16:16;1.5;;;7.3;;
55013;SDS011;40916;51.632;5.552;2022-10-16T14:21:13;1.5;;;6.7;;
55013;SDS011;40916;51.632;5.552;2022-10-16T14:26:13;1.8;;;9.9;;
55013;SDS011;40916;51.632;5.552;2022-10-16T14:31:23;1.6;;;8.4;;
55013;SDS011;40916;51.632;5.552;2022-10-16T14:36:13;1.8;;;8.9;;
55013;SDS011;40916;51.632;5.552;2022-10-16T14:41:12;1.9;;;8.2;;
55013;SDS011;40916;51.632;5.552;2022-10-16T14:46:13;2;;;8.8;;
55013;SDS011;40916;51.632;5.552;2022-10-16T14:51:13;2.1;;;10;;
55013;SDS011;40916;51.632;5.552;2022-10-16T14:56:14;1.5;;;10;;
55013;SDS011;40916;51.632;5.552;2022-10-16T15:01:12;1.7;;;8;;
55013;SDS011;40916;51.632;5.552;2022-10-16T15:06:13;1.8;;;7.5;;
55013;SDS011;40916;51.632;5.552;2022-10-16T15:11:13;1.8;;;7.7;;
55013;SDS011;40916;51.632;5.552;2022-10-16T15:16:13;2.1;;;9.1;;
55013;SDS011;40916;51.632;5.552;2022-10-16T15:21:13;1.7;;;8.1;;
55013;SDS011;40916;51.632;5.552;2022-10-16T15:26:12;1.6;;;3.7;;
55013;SDS011;40916;51.632;5.552;2022-10-16T15:31:12;2.4;;;7.1;;
55013;SDS011;40916;51.632;5.552;2022-10-16T15:36:12;1.9;;;7.3;;
55013;SDS011;40916;51.632;5.552;2022-10-16T15:41:12;2.1;;;6.6;;
55013;SDS011;40916;51.632;5.552;2022-10-16T15:46:12;2.1;;;10.4;;
55013;SDS011;40916;51.632;5.552;2022-10-16T15:51:12;1.8;;;7.9;;
55013;SDS011;40916;51.632;5.552;2022-10-16T15:56:12;1.9;;;5.3;;
55013;SDS011;40916;51.632;5.552;2022-10-16T16:01:12;2.4;;;13.2;;
55013;SDS011;40916;51.632;5.552;2022-10-16T16:06:13;1.5;;;6.8;;
55013;SDS011;40916;51.632;5.552;2022-10-16T16:11:14;2.3;;;33.1;;
55013;SDS011;40916;51.632;5.552;2022-10-16T16:16:13;2.6;;;13.6;;
55013;SDS011;40916;51.632;5.552;2022-10-16T16:21:12;2.2;;;11.2;;
55013;SDS011;40916;51.632;5.552;2022-10-16T16:26:13;2.1;;;8.9;;
55013;SDS011;40916;51.632;5.552;2022-10-16T16:31:12;1.9;;;8.1;;
55013;SDS011;40916;51.632;5.552;2022-10-16T16:36:12;2.1;;;6.6;;
55013;SDS011;40916;51.632;5.552;2022-10-16T16:41:12;1.7;;;4.9;;
55013;SDS011;40916;51.632;5.552;2022-10-16T16:46:12;1.8;;;6.3;;
55013;SDS011;40916;51.632;5.552;2022-10-16T16:51:13;2;;;7.6;;
55013;SDS011;40916;51.632;5.552;2022-10-16T16:56:12;2.6;;;5.9;;
55013;SDS011;40916;51.632;5.552;2022-10-16T17:01:12;4.8;;;12.3;;
55013;SDS011;40916;51.632;5.552;2022-10-16T17:06:13;3.3;;;9.9;;
55013;SDS011;40916;51.632;5.552;2022-10-16T17:11:13;2.3;;;6.1;;
55013;SDS011;40916;51.632;5.552;2022-10-16T17:16:12;2.6;;;8;;
55013;SDS011;40916;51.632;5.552;2022-10-16T17:21:12;2.5;;;8.6;;
55013;SDS011;40916;51.632;5.552;2022-10-16T17:26:13;4.2;;;11.1;;
55013;SDS011;40916;51.632;5.552;2022-10-16T17:31:13;3.3;;;9.5;;
55013;SDS011;40916;51.632;5.552;2022-10-16T17:36:12;3.6;;;6.7;;
55013;SDS011;40916;51.632;5.552;2022-10-16T17:41:13;3.8;;;10.8;;
55013;SDS011;40916;51.632;5.552;2022-10-16T17:46:13;4;;;14.9;;
55013;SDS011;40916;51.632;5.552;2022-10-16T17:51:13;3.5;;;6.7;;
55013;SDS011;40916;51.632;5.552;2022-10-16T17:56:12;5.8;;;14.6;;
55013;SDS011;40916;51.632;5.552;2022-10-16T18:01:12;3.8;;;8.5;;
55013;SDS011;40916;51.632;5.552;2022-10-16T18:06:12;3.2;;;7.2;;
55013;SDS011;40916;51.632;5.552;2022-10-16T18:11:12;3.3;;;6.8;;
55013;SDS011;40916;51.632;5.552;2022-10-16T18:16:13;3.2;;;6.4;;
55013;SDS011;40916;51.632;5.552;2022-10-16T18:21:13;3.9;;;13.7;;
55013;SDS011;40916;51.632;5.552;2022-10-16T18:26:12;6;;;11.6;;
55013;SDS011;40916;51.632;5.552;2022-10-16T18:31:13;5.2;;;10.7;;
55013;SDS011;40916;51.632;5.552;2022-10-16T18:36:12;7.9;;;14.7;;
55013;SDS011;40916;51.632;5.552;2022-10-16T18:41:12;8.2;;;11.6;;
55013;SDS011;40916;51.632;5.552;2022-10-16T18:46:13;5.4;;;9.9;;
55013;SDS011;40916;51.632;5.552;2022-10-16T18:51:14;4.7;;;12.9;;
55013;SDS011;40916;51.632;5.552;2022-10-16T18:56:13;5.1;;;10.9;;
55013;SDS011;40916;51.632;5.552;2022-10-16T19:01:14;5.7;;;8.5;;
55013;SDS011;40916;51.632;5.552;2022-10-16T19:06:14;6.6;;;15.9;;
55013;SDS011;40916;51.632;5.552;2022-10-16T19:11:14;5.4;;;11;;
55013;SDS011;40916;51.632;5.552;2022-10-16T19:16:14;4.9;;;8;;
55013;SDS011;40916;51.632;5.552;2022-10-16T19:21:13;8.4;;;16.1;;
55013;SDS011;40916;51.632;5.552;2022-10-16T19:26:14;7;;;11.4;;
55013;SDS011;40916;51.632;5.552;2022-10-16T19:31:15;6.1;;;14.4;;
55013;SDS011;40916;51.632;5.552;2022-10-16T19:36:14;5;;;13.4;;
55013;SDS011;40916;51.632;5.552;2022-10-16T19:41:13;4.7;;;7.2;;
55013;SDS011;40916;51.632;5.552;2022-10-16T19:46:13;4.5;;;6.7;;
55013;SDS011;40916;51.632;5.552;2022-10-16T19:51:15;5;;;8.4;;
55013;SDS011;40916;51.632;5.552;2022-10-16T19:56:13;4.6;;;8.4;;
55013;SDS011;40916;51.632;5.552;2022-10-16T20:01:13;5.2;;;11;;
55013;SDS011;40916;51.632;5.552;2022-10-16T20:06:13;4.6;;;8.9;;
55013;SDS011;40916;51.632;5.552;2022-10-16T20:11:14;5.1;;;10.4;;
55013;SDS011;40916;51.632;5.552;2022-10-16T20:16:13;4.8;;;11.2;;
55013;SDS011;40916;51.632;5.552;2022-10-16T20:21:15;4.6;;;9.7;;
55013;SDS011;40916;51.632;5.552;2022-10-16T20:26:13;5.9;;;14.7;;
55013;SDS011;40916;51.632;5.552;2022-10-16T20:31:14;5.6;;;12.6;;
55013;SDS011;40916;51.632;5.552;2022-10-16T20:36:13;5.5;;;11.8;;
55013;SDS011;40916;51.632;5.552;2022-10-16T20:41:13;5.3;;;11;;
55013;SDS011;40916;51.632;5.552;2022-10-16T20:46:13;5.9;;;16.5;;
55013;SDS011;40916;51.632;5.552;2022-10-16T20:51:14;5.8;;;9.9;;
55013;SDS011;40916;51.632;5.552;2022-10-16T20:56:13;4.8;;;9.1;;
55013;SDS011;40916;51.632;5.552;2022-10-16T21:01:13;4.4;;;8;;
55013;SDS011;40916;51.632;5.552;2022-10-16T21:06:13;4.8;;;10.6;;
55013;SDS011;40916;51.632;5.552;2022-10-16T21:11:13;4.3;;;11.3;;
55013;SDS011;40916;51.632;5.552;2022-10-16T21:16:13;4.1;;;7;;
55013;SDS011;40916;51.632;5.552;2022-10-16T21:21:18;4.5;;;10.5;;
55013;SDS011;40916;51.632;5.552;2022-10-16T21:26:13;4.9;;;8.6;;
55013;SDS011;40916;51.632;5.552;2022-10-16T21:31:14;4.7;;;8.6;;
55013;SDS011;40916;51.632;5.552;2022-10-16T21:36:13;5.1;;;9.2;;
55013;SDS011;40916;51.632;5.552;2022-10-16T21:41:13;4.5;;;8.5;;
55013;SDS011;40916;51.632;5.552;2022-10-16T21:46:13;4.8;;;8.6;;
55013;SDS011;40916;51.632;5.552;2022-10-16T21:51:13;5.5;;;8;;
55013;SDS011;40916;51.632;5.552;2022-10-16T21:56:13;5.5;;;9.2;;
55013;SDS011;40916;51.632;5.552;2022-10-16T22:01:14;5.7;;;11.1;;
55013;SDS011;40916;51.632;5.552;2022-10-16T22:06:14;5.5;;;10.5;;
55013;SDS011;40916;51.632;5.552;2022-10-16T22:11:13;5.5;;;13.7;;
55013;SDS011;40916;51.632;5.552;2022-10-16T22:16:13;4.9;;;7.5;;
55013;SDS011;40916;51.632;5.552;2022-10-16T22:21:13;7.3;;;18.1;;
55013;SDS011;40916;51.632;5.552;2022-10-16T22:26:13;5.6;;;12.1;;
55013;SDS011;40916;51.632;5.552;2022-10-16T22:31:13;5.4;;;8.1;;
55013;SDS011;40916;51.632;5.552;2022-10-16T22:36:13;5.6;;;10.1;;
55013;SDS011;40916;51.632;5.552;2022-10-16T22:41:13;5.5;;;13.2;;
55013;SDS011;40916;51.632;5.552;2022-10-16T22:46:14;5.5;;;10.9;;
55013;SDS011;40916;51.632;5.552;2022-10-16T22:51:13;6.3;;;10.7;;
55013;SDS011;40916;51.632;5.552;2022-10-16T22:56:14;6.6;;;9.2;;
55013;SDS011;40916;51.632;5.552;2022-10-16T23:01:13;6.7;;;10.8;;
55013;SDS011;40916;51.632;5.552;2022-10-16T23:06:13;7.3;;;15.4;;
55013;SDS011;40916;51.632;5.552;2022-10-16T23:11:13;6.5;;;10.4;;
55013;SDS011;40916;51.632;5.552;2022-10-16T23:16:13;7;;;11.9;;
55013;SDS011;40916;51.632;5.552;2022-10-16T23:21:14;6.5;;;8.1;;
55013;SDS011;40916;51.632;5.552;2022-10-16T23:26:13;6.8;;;13.6;;
55013;SDS011;40916;51.632;5.552;2022-10-16T23:31:13;6.5;;;13.1;;
55013;SDS011;40916;51.632;5.552;2022-10-16T23:36:13;6.3;;;9.4;;
55013;SDS011;40916;51.632;5.552;2022-10-16T23:41:13;7;;;13.1;;
55013;SDS011;40916;51.632;5.552;2022-10-16T23:46:13;6.5;;;12.4;;
55013;SDS011;40916;51.632;5.552;2022-10-16T23:51:13;7;;;10.9;;
55013;SDS011;40916;51.632;5.552;2022-10-16T23:56:13;6.4;;;10.1;;
